createdAt,value
2019-02-25T00:00:39.488Z,5.03
2019-02-25T00:03:09.006Z,4.95
2019-02-25T00:05:38.352Z,4.90
2019-02-25T00:08:07.720Z,4.92
2019-02-25T00:10:37.087Z,5.06
2019-02-25T00:13:06.514Z,5.02
2019-02-25T00:15:35.946Z,4.97
2019-02-25T00:18:05.218Z,4.93
2019-02-25T00:20:34.500Z,4.92
2019-02-25T00:23:03.820Z,4.74
2019-02-25T00:25:33.468Z,4.74
2019-02-25T00:28:02.862Z,4.84
2019-02-25T00:30:32.156Z,4.88
2019-02-25T00:33:01.551Z,4.98
2019-02-25T00:35:30.874Z,5.11
2019-02-25T00:38:00.195Z,4.93
2019-02-25T00:40:29.505Z,4.80
2019-02-25T00:42:58.779Z,4.90
2019-02-25T00:45:28.085Z,5.14
2019-02-25T00:47:57.377Z,4.86
2019-02-25T00:50:26.691Z,4.86
2019-02-25T00:52:56.165Z,4.60
2019-02-25T00:55:25.466Z,4.49
2019-02-25T00:57:54.770Z,4.48
2019-02-25T01:00:25.805Z,4.25
2019-02-25T01:02:55.168Z,4.23
2019-02-25T01:05:25.377Z,4.38
2019-02-25T01:07:54.832Z,4.19
2019-02-25T01:10:24.191Z,4.44
2019-02-25T01:12:53.499Z,4.08
2019-02-25T01:15:22.841Z,4.47
2019-02-25T01:17:52.152Z,4.43
2019-02-25T01:20:21.519Z,4.36
2019-02-25T01:22:50.912Z,4.43
2019-02-25T01:25:20.245Z,4.49
2019-02-25T01:27:49.507Z,4.51
2019-02-25T01:30:20.919Z,4.70
2019-02-25T01:32:50.301Z,4.74
2019-02-25T01:35:19.681Z,4.99
2019-02-25T01:37:48.976Z,5.18
2019-02-25T01:40:18.339Z,5.29
2019-02-25T01:42:47.652Z,5.28
2019-02-25T01:45:19.170Z,5.17
2019-02-25T01:47:48.473Z,5.18
2019-02-25T01:50:18.449Z,5.24
2019-02-25T01:52:47.741Z,5.24
2019-02-25T01:55:17.376Z,5.22
2019-02-25T01:57:46.667Z,5.01
2019-02-25T02:00:18.447Z,4.77
2019-02-25T02:02:47.777Z,5.07
2019-02-25T02:05:17.824Z,5.09
2019-02-25T02:07:47.127Z,5.12
2019-02-25T02:10:18.267Z,4.78
2019-02-25T02:12:47.618Z,4.90
2019-02-25T02:15:21.161Z,5.01
2019-02-25T02:17:50.486Z,4.91
2019-02-25T02:20:19.983Z,4.76
2019-02-25T02:22:49.261Z,4.74
2019-02-25T02:25:18.568Z,4.62
2019-02-25T02:27:47.846Z,4.46
2019-02-25T02:30:22.181Z,4.39
2019-02-25T02:32:51.457Z,4.33
2019-02-25T02:35:20.918Z,4.40
2019-02-25T02:37:50.204Z,4.67
2019-02-25T02:40:19.491Z,4.81
2019-02-25T02:42:59.506Z,4.85
2019-02-25T02:45:31.883Z,4.70
2019-02-25T02:48:04.204Z,4.71
2019-02-25T02:50:33.521Z,4.66
2019-02-25T02:53:03.072Z,4.78
2019-02-25T02:55:32.413Z,4.61
2019-02-25T02:58:01.688Z,4.47
2019-02-25T03:00:31.064Z,4.40
2019-02-25T03:03:00.317Z,4.55
2019-02-25T03:05:29.622Z,4.36
2019-02-25T03:07:58.903Z,4.39
2019-02-25T03:10:28.211Z,4.25
2019-02-25T03:12:57.483Z,3.98
2019-02-25T03:15:26.779Z,4.13
2019-02-25T03:17:56.076Z,4.13
2019-02-25T03:20:25.507Z,4.43
2019-02-25T03:22:54.808Z,4.73
2019-02-25T03:25:24.101Z,4.96
2019-02-25T03:27:53.821Z,5.13
2019-02-25T03:30:23.175Z,5.06
2019-02-25T03:32:52.466Z,5.27
2019-02-25T03:35:21.734Z,5.09
2019-02-25T03:37:51.039Z,5.07
2019-02-25T03:40:24.534Z,5.01
2019-02-25T03:42:54.143Z,4.81
2019-02-25T03:45:23.511Z,4.48
2019-02-25T03:47:52.800Z,4.60
2019-02-25T03:50:22.146Z,4.45
2019-02-25T03:52:51.434Z,4.58
2019-02-25T03:55:21.703Z,4.46
2019-02-25T03:57:51.007Z,4.44
2019-02-25T04:00:25.459Z,4.42
2019-02-25T04:02:54.839Z,4.39
2019-02-25T04:05:24.097Z,4.44
2019-02-25T04:07:53.466Z,4.44
2019-02-25T04:10:22.830Z,4.46
2019-02-25T04:12:52.273Z,4.47
2019-02-25T04:15:23.301Z,4.28
2019-02-25T04:17:52.610Z,4.25
2019-02-25T04:20:21.908Z,4.28
2019-02-25T04:22:51.180Z,4.20
2019-02-25T04:25:20.486Z,4.05
2019-02-25T04:27:51.649Z,3.99
2019-02-25T04:30:20.943Z,3.95
2019-02-25T04:32:50.217Z,3.97
2019-02-25T04:35:19.510Z,3.78
2019-02-25T04:37:48.791Z,4.03
2019-02-25T04:40:18.089Z,4.02
2019-02-25T04:42:47.354Z,3.58
2019-02-25T04:45:18.697Z,3.86
2019-02-25T04:47:47.963Z,3.94
2019-02-25T04:50:17.266Z,3.82
2019-02-25T04:52:46.545Z,3.65
2019-02-25T04:55:16.550Z,3.55
2019-02-25T04:57:45.817Z,3.42
2019-02-25T05:00:17.355Z,3.62
2019-02-25T05:02:46.724Z,3.69
2019-02-25T05:05:16.033Z,3.67
2019-02-25T05:07:45.375Z,3.42
2019-02-25T05:10:16.898Z,3.48
2019-02-25T05:13:00.018Z,3.48
2019-02-25T05:15:30.777Z,3.23
2019-02-25T05:18:00.077Z,3.37
2019-02-25T05:20:29.370Z,3.31
2019-02-25T05:22:58.705Z,3.22
2019-02-25T05:25:27.981Z,3.26
2019-02-25T05:27:57.401Z,3.39
2019-02-25T05:30:26.790Z,3.27
2019-02-25T05:32:56.074Z,3.12
2019-02-25T05:35:25.366Z,3.02
2019-02-25T05:37:54.666Z,2.98
2019-02-25T05:40:23.936Z,2.92
2019-02-25T05:42:53.229Z,2.96
2019-02-25T05:45:22.509Z,2.95
2019-02-25T05:47:51.803Z,2.98
2019-02-25T05:50:22.229Z,2.81
2019-02-25T05:52:51.525Z,2.77
2019-02-25T05:55:20.802Z,2.77
2019-02-25T05:57:50.105Z,2.62
2019-02-25T06:00:22.672Z,2.76
2019-02-25T06:02:51.981Z,2.75
2019-02-25T06:05:21.266Z,2.62
2019-02-25T06:07:50.695Z,2.59
2019-02-25T06:10:20.057Z,2.65
2019-02-25T06:12:49.461Z,2.80
2019-02-25T06:15:20.162Z,2.81
2019-02-25T06:17:49.468Z,2.78
2019-02-25T06:20:19.118Z,2.86
2019-02-25T06:22:48.478Z,2.84
2019-02-25T06:25:18.088Z,2.85
2019-02-25T06:27:47.424Z,2.78
2019-02-25T06:30:23.667Z,2.83
2019-02-25T06:32:53.027Z,2.77
2019-02-25T06:35:22.680Z,2.67
2019-02-25T06:37:52.101Z,2.59
2019-02-25T06:40:21.920Z,2.64
2019-02-25T06:42:51.296Z,3.10
2019-02-25T06:45:26.287Z,2.81
2019-02-25T06:47:55.579Z,2.75
2019-02-25T06:50:24.896Z,2.64
2019-02-25T06:52:54.199Z,2.57
2019-02-25T06:55:23.503Z,2.75
2019-02-25T06:57:52.833Z,2.93
2019-02-25T07:00:23.488Z,3.17
2019-02-25T07:02:52.849Z,3.26
2019-02-25T07:05:23.792Z,3.69
2019-02-25T07:07:54.803Z,4.07
2019-02-25T07:10:29.004Z,4.49
2019-02-25T07:13:02.848Z,4.77
2019-02-25T07:15:33.805Z,5.21
2019-02-25T07:18:07.883Z,5.45
2019-02-25T07:20:38.829Z,6.01
2019-02-25T07:23:09.762Z,6.13
2019-02-25T07:25:40.696Z,6.18
2019-02-25T07:28:11.631Z,6.05
2019-02-25T07:30:58.563Z,6.22
2019-02-25T07:33:41.410Z,5.99
2019-02-25T07:36:14.881Z,6.26
2019-02-25T07:38:54.825Z,6.19
2019-02-25T07:41:28.596Z,6.37
2019-02-25T07:44:02.385Z,6.37
2019-02-25T07:46:33.334Z,6.27
2019-02-25T07:49:04.401Z,6.22
2019-02-25T07:51:35.344Z,6.07
2019-02-25T07:54:21.571Z,6.37
2019-02-25T07:56:58.229Z,6.68
2019-02-25T07:59:32.103Z,6.95
2019-02-25T08:02:05.706Z,7.05
2019-02-25T08:04:45.420Z,7.22
2019-02-25T08:07:34.438Z,7.33
2019-02-25T08:10:15.556Z,7.17
2019-02-25T08:12:52.402Z,7.27
2019-02-25T08:15:23.355Z,7.54
2019-02-25T08:17:54.306Z,7.29
2019-02-25T08:20:41.515Z,7.39
2019-02-25T08:23:15.173Z,7.65
2019-02-25T08:26:02.126Z,7.58
2019-02-25T08:28:42.077Z,7.97
2019-02-25T08:31:15.681Z,7.93
2019-02-25T08:33:55.565Z,8.30
2019-02-25T08:37:01.960Z,8.23
2019-02-25T08:39:35.516Z,8.84
2019-02-25T08:42:06.464Z,9.58
2019-02-25T08:44:40.454Z,10.61
2019-02-25T08:47:17.235Z,11.05
2019-02-25T08:49:50.708Z,11.26
2019-02-25T08:52:20.272Z,11.56
2019-02-25T08:54:49.586Z,11.49
2019-02-25T08:57:18.931Z,12.04
2019-02-25T08:59:48.317Z,11.69
2019-02-25T09:02:17.752Z,11.53
2019-02-25T09:04:49.158Z,11.59
2019-02-25T09:07:18.052Z,12.00
2019-02-25T09:09:47.359Z,12.75
2019-02-25T09:12:16.745Z,14.39
2019-02-25T09:14:46.049Z,15.66
2019-02-25T09:17:16.153Z,14.93
2019-02-25T09:19:45.720Z,15.47
2019-02-25T09:22:15.000Z,14.92
2019-02-25T09:24:44.314Z,14.12
2019-02-25T09:27:13.617Z,13.78
2019-02-25T09:29:44.845Z,14.65
2019-02-25T09:32:13.960Z,15.50
2019-02-25T09:34:43.269Z,14.11
2019-02-25T09:37:12.566Z,14.76
2019-02-25T09:39:41.838Z,14.54
2019-02-25T09:42:11.147Z,14.92
2019-02-25T09:44:40.414Z,14.28
2019-02-25T09:47:09.721Z,13.66
2019-02-25T09:49:39.073Z,13.06
2019-02-25T09:52:08.396Z,12.75
2019-02-25T09:54:37.714Z,12.98
2019-02-25T09:57:07.015Z,13.68
2019-02-25T09:59:36.310Z,14.07
2019-02-25T10:02:05.752Z,14.36
2019-02-25T10:04:35.201Z,15.40
2019-02-25T10:07:04.557Z,15.70
2019-02-25T10:09:33.833Z,17.28
2019-02-25T10:12:03.155Z,16.39
2019-02-25T10:14:32.472Z,15.27
2019-02-25T10:17:01.841Z,16.26
2019-02-25T10:19:31.122Z,16.25
2019-02-25T10:22:00.663Z,16.64
2019-02-25T10:24:29.952Z,16.85
2019-02-25T10:26:59.260Z,17.54
2019-02-25T10:29:28.738Z,17.81
2019-02-25T10:31:58.053Z,17.91
2019-02-25T10:34:27.375Z,17.43
2019-02-25T10:36:56.652Z,17.31
2019-02-25T10:39:25.965Z,18.53
2019-02-25T10:41:55.935Z,19.12
2019-02-25T10:44:26.227Z,20.34
2019-02-25T10:46:55.534Z,21.00
2019-02-25T10:49:26.663Z,21.69
2019-02-25T10:51:55.904Z,20.77
2019-02-25T10:54:25.517Z,20.58
2019-02-25T10:56:57.774Z,19.54
2019-02-25T10:59:26.823Z,18.73
2019-02-25T11:01:56.147Z,18.07
2019-02-25T11:04:26.281Z,17.88
2019-02-25T11:06:55.841Z,19.50
2019-02-25T11:09:35.986Z,20.35
2019-02-25T11:12:05.404Z,20.91
2019-02-25T11:14:35.958Z,20.95
2019-02-25T11:17:05.838Z,21.89
2019-02-25T11:19:35.154Z,22.30
2019-02-25T11:22:05.526Z,21.41
2019-02-25T11:24:35.866Z,20.83
2019-02-25T11:27:07.185Z,21.57
2019-02-25T11:29:37.986Z,21.58
2019-02-25T11:32:07.475Z,22.12
2019-02-25T11:34:37.693Z,22.93
2019-02-25T11:37:07.682Z,23.16
2019-02-25T11:39:37.266Z,22.13
2019-02-25T11:42:08.001Z,22.81
2019-02-25T11:44:37.729Z,22.07
2019-02-25T11:47:07.725Z,22.18
2019-02-25T11:49:37.038Z,22.93
2019-02-25T11:54:34.548Z,20.45
2019-02-25T11:57:03.924Z,20.94
2019-02-25T11:59:33.231Z,21.26
2019-02-25T12:02:02.584Z,22.49
2019-02-25T12:04:31.840Z,20.28
2019-02-25T12:07:01.154Z,20.60
2019-02-25T12:09:30.437Z,20.44
2019-02-25T12:11:59.734Z,22.25
2019-02-25T12:14:29.022Z,21.91
2019-02-25T12:16:58.353Z,22.57
2019-02-25T12:19:27.703Z,24.86
2019-02-25T12:21:57.007Z,24.70
2019-02-25T12:24:26.298Z,25.50
2019-02-25T12:26:55.582Z,24.87
2019-02-25T12:29:24.885Z,25.54
2019-02-25T12:31:54.171Z,26.24
2019-02-25T12:34:23.525Z,25.72
2019-02-25T12:36:52.856Z,23.57
2019-02-25T12:39:22.234Z,25.10
2019-02-25T12:41:51.538Z,26.03
2019-02-25T12:44:20.944Z,23.45
2019-02-25T12:46:50.229Z,24.89
2019-02-25T12:49:19.547Z,22.12
2019-02-25T12:51:48.819Z,20.99
2019-02-25T12:54:18.132Z,24.22
2019-02-25T12:56:47.423Z,24.95
2019-02-25T12:59:16.728Z,25.23
2019-02-25T13:01:46.080Z,24.01
2019-02-25T13:04:15.557Z,24.05
2019-02-25T13:06:44.835Z,24.28
2019-02-25T13:09:15.026Z,25.49
2019-02-25T13:11:44.302Z,26.21
2019-02-25T13:14:13.624Z,24.04
2019-02-25T13:16:43.114Z,24.94
2019-02-25T13:19:12.432Z,25.26
2019-02-25T13:21:41.713Z,20.13
2019-02-25T13:24:11.018Z,21.45
2019-02-25T13:26:40.296Z,24.27
2019-02-25T13:29:09.609Z,21.16
2019-02-25T13:31:38.880Z,24.65
2019-02-25T13:34:08.240Z,23.79
2019-02-25T13:36:37.562Z,22.62
2019-02-25T13:39:08.474Z,20.17
2019-02-25T13:41:37.782Z,20.65
2019-02-25T13:44:07.059Z,20.84
2019-02-25T13:46:36.380Z,21.25
2019-02-25T13:49:05.661Z,20.87
2019-02-25T13:51:34.974Z,19.50
2019-02-25T13:54:04.464Z,18.69
2019-02-25T13:56:34.798Z,18.36
2019-02-25T13:59:04.417Z,18.79
2019-02-25T14:01:34.121Z,19.03
2019-02-25T14:04:03.568Z,19.20
2019-02-25T14:06:33.220Z,19.34
2019-02-25T14:09:02.913Z,19.33
2019-02-25T14:11:32.291Z,19.05
2019-02-25T14:14:01.603Z,19.11
2019-02-25T14:16:31.350Z,19.05
2019-02-25T14:19:01.013Z,18.95
2019-02-25T14:21:31.738Z,18.77
2019-02-25T14:24:01.288Z,18.15
2019-02-25T14:26:30.600Z,18.01
2019-02-25T14:28:59.871Z,18.13
2019-02-25T14:31:29.975Z,18.22
2019-02-25T14:33:59.424Z,18.28
2019-02-25T14:36:29.499Z,18.33
2019-02-25T14:39:01.457Z,18.59
2019-02-25T14:41:30.179Z,18.79
2019-02-25T14:44:00.010Z,18.43
2019-02-25T14:46:29.356Z,18.51
2019-02-25T14:48:58.690Z,18.48
2019-02-25T14:51:28.050Z,18.59
2019-02-25T14:53:57.473Z,18.62
2019-02-25T14:56:27.156Z,18.66
2019-02-25T14:58:56.488Z,18.65
2019-02-25T15:01:27.617Z,18.74
2019-02-25T15:03:58.164Z,18.45
2019-02-25T15:06:30.273Z,18.34
2019-02-25T15:09:01.486Z,18.38
2019-02-25T15:11:30.874Z,18.32
2019-02-25T15:14:00.190Z,18.47
2019-02-25T15:16:29.786Z,18.28
2019-02-25T15:19:00.630Z,18.30
2019-02-25T15:21:30.606Z,18.38
2019-02-25T15:24:04.006Z,18.50
2019-02-25T15:26:31.575Z,18.52
2019-02-25T15:29:02.779Z,18.52
2019-02-25T15:31:32.332Z,18.39
2019-02-25T15:34:01.838Z,18.45
2019-02-25T15:36:31.195Z,18.46
2019-02-25T15:39:00.495Z,18.07
2019-02-25T15:41:29.840Z,18.15
2019-02-25T15:44:02.122Z,18.14
2019-02-25T15:46:31.898Z,18.01
2019-02-25T15:49:01.322Z,17.99
2019-02-25T15:51:34.305Z,17.91
2019-02-25T15:54:03.100Z,17.98
2019-02-25T15:56:32.453Z,18.03
2019-02-25T15:59:01.824Z,17.83
2019-02-25T16:01:31.170Z,17.84
2019-02-25T16:04:04.290Z,17.71
2019-02-25T16:06:33.533Z,17.85
2019-02-25T16:09:05.891Z,17.69
2019-02-25T16:11:36.654Z,17.59
2019-02-25T16:14:07.022Z,17.57
2019-02-25T16:16:36.791Z,17.58
2019-02-25T16:19:06.159Z,17.41
2019-02-25T16:21:35.795Z,17.36
2019-02-25T16:24:08.157Z,17.26
2019-02-25T16:26:36.881Z,17.25
2019-02-25T16:29:09.134Z,17.24
2019-02-25T16:31:39.079Z,17.20
2019-02-25T16:34:10.019Z,17.14
2019-02-25T16:36:39.498Z,17.20
2019-02-25T16:39:10.020Z,17.13
2019-02-25T16:41:41.642Z,17.08
2019-02-25T16:44:10.847Z,16.94
2019-02-25T16:46:41.766Z,16.99
2019-02-25T16:49:11.168Z,16.99
2019-02-25T16:51:40.598Z,16.88
2019-02-25T16:54:11.653Z,16.77
2019-02-25T16:56:41.641Z,16.53
2019-02-25T16:59:12.987Z,16.31
2019-02-25T17:01:42.179Z,15.92
2019-02-25T17:04:12.176Z,15.72
2019-02-25T17:06:42.963Z,15.60
2019-02-25T17:09:18.305Z,15.49
2019-02-25T17:11:48.154Z,15.11
2019-02-25T17:14:19.070Z,15.02
2019-02-25T17:16:48.539Z,14.86
2019-02-25T17:19:19.673Z,14.49
2019-02-25T17:21:49.297Z,14.58
2019-02-25T17:24:18.605Z,14.37
2019-02-25T17:26:48.002Z,14.25
2019-02-25T17:29:17.595Z,14.31
2019-02-25T17:31:46.902Z,14.38
2019-02-25T17:34:18.682Z,14.18
2019-02-25T17:36:49.869Z,14.20
2019-02-25T17:39:19.189Z,14.09
2019-02-25T17:41:48.856Z,14.05
2019-02-25T17:44:20.549Z,13.96
2019-02-25T17:46:49.448Z,13.83
2019-02-25T17:49:19.257Z,13.65
2019-02-25T17:51:49.573Z,13.18
2019-02-25T17:54:19.619Z,12.92
2019-02-25T17:56:49.723Z,12.89
2019-02-25T17:59:21.357Z,13.05
2019-02-25T18:01:51.391Z,12.86
2019-02-25T18:04:20.714Z,12.76
2019-02-25T18:06:50.012Z,12.95
2019-02-25T18:09:20.532Z,12.82
2019-02-25T18:11:50.448Z,12.60
2019-02-25T18:14:20.007Z,12.24
2019-02-25T18:16:51.092Z,12.27
2019-02-25T18:19:22.603Z,12.53
2019-02-25T18:21:51.492Z,12.24
2019-02-25T18:24:21.123Z,12.39
2019-02-25T18:26:50.486Z,12.30
2019-02-25T18:29:20.772Z,12.29
2019-02-25T18:31:51.572Z,12.44
2019-02-25T18:34:21.022Z,12.32
2019-02-25T18:36:51.622Z,12.33
2019-02-25T18:39:23.138Z,12.41
2019-02-25T18:41:54.789Z,12.18
2019-02-25T18:44:24.279Z,12.08
2019-02-25T18:46:53.932Z,12.14
2019-02-25T18:49:23.253Z,12.28
2019-02-25T18:51:52.605Z,12.21
2019-02-25T18:54:23.347Z,11.61
2019-02-25T18:56:53.768Z,11.42
2019-02-25T18:59:24.700Z,11.23
2019-02-25T19:01:54.161Z,11.12
2019-02-25T19:04:23.502Z,11.09
2019-02-25T19:06:53.017Z,11.06
2019-02-25T19:09:25.099Z,10.90
2019-02-25T19:11:56.168Z,10.75
2019-02-25T19:14:26.495Z,10.78
2019-02-25T19:16:57.695Z,10.70
2019-02-25T19:19:27.932Z,10.58
2019-02-25T19:21:57.438Z,10.49
2019-02-25T19:24:26.842Z,10.51
2019-02-25T19:26:56.221Z,10.47
2019-02-25T19:29:27.650Z,10.38
2019-02-25T19:32:00.635Z,10.49
2019-02-25T19:34:27.975Z,10.19
2019-02-25T19:37:00.308Z,9.72
2019-02-25T19:39:29.094Z,10.05
2019-02-25T19:42:00.551Z,10.11
2019-02-25T19:44:31.902Z,9.89
2019-02-25T19:47:01.195Z,9.69
2019-02-25T19:49:30.599Z,9.68
2019-02-25T19:52:00.123Z,9.69
2019-02-25T19:54:29.623Z,9.68
2019-02-25T19:56:59.019Z,9.49
2019-02-25T19:59:29.194Z,9.34
2019-02-25T20:01:59.544Z,9.12
2019-02-25T20:04:28.867Z,9.26
2019-02-25T20:07:00.323Z,9.46
2019-02-25T20:09:29.622Z,9.43
2019-02-25T20:12:01.310Z,9.51
2019-02-25T20:14:31.429Z,9.45
2019-02-25T20:17:02.665Z,9.10
2019-02-25T20:19:32.640Z,9.26
2019-02-25T20:22:01.936Z,9.38
2019-02-25T20:24:31.383Z,9.20
2019-02-25T20:27:02.396Z,8.82
2019-02-25T20:29:31.717Z,8.86
2019-02-25T20:32:00.990Z,9.11
2019-02-25T20:34:32.092Z,9.09
2019-02-25T20:37:03.855Z,8.98
2019-02-25T20:39:33.732Z,9.03
2019-02-25T20:42:03.999Z,8.96
2019-02-25T20:44:34.884Z,8.56
2019-02-25T20:47:04.504Z,8.56
2019-02-25T20:49:33.780Z,8.31
2019-02-25T20:52:03.080Z,8.38
2019-02-25T20:54:32.458Z,8.80
2019-02-25T20:57:01.782Z,8.60
2019-02-25T20:59:33.092Z,8.73
2019-02-25T21:02:02.271Z,8.17
2019-02-25T21:04:31.581Z,8.17
2019-02-25T21:07:02.165Z,7.85
2019-02-25T21:09:33.595Z,7.77
2019-02-25T21:12:02.859Z,8.08
2019-02-25T21:14:33.569Z,8.03
2019-02-25T21:17:03.236Z,7.73
2019-02-25T21:19:33.365Z,7.77
2019-02-25T21:22:04.519Z,7.97
2019-02-25T21:24:35.491Z,8.06
2019-02-25T21:27:06.407Z,8.17
2019-02-25T21:29:38.768Z,8.27
2019-02-25T21:32:07.736Z,8.27
2019-02-25T21:34:37.107Z,7.94
2019-02-25T21:37:06.399Z,7.80
2019-02-25T21:39:36.659Z,7.81
2019-02-25T21:42:10.672Z,7.73
2019-02-25T21:44:37.758Z,7.57
2019-02-25T21:47:07.149Z,7.53
2019-02-25T21:49:38.193Z,7.50
2019-02-25T21:52:08.410Z,7.50
2019-02-25T21:54:38.512Z,7.44
2019-02-25T21:57:09.615Z,7.10
2019-02-25T21:59:41.077Z,7.01
2019-02-25T22:02:09.847Z,6.94
2019-02-25T22:04:42.420Z,7.11
2019-02-25T22:07:10.119Z,7.21
2019-02-25T22:09:41.914Z,7.15
2019-02-25T22:12:10.455Z,7.15
2019-02-25T22:14:41.205Z,7.09
2019-02-25T22:17:10.737Z,7.12
2019-02-25T22:19:41.463Z,7.19
2019-02-25T22:22:11.102Z,7.14
2019-02-25T22:24:40.635Z,7.01
2019-02-25T22:27:11.910Z,6.94
2019-02-25T22:29:42.989Z,6.67
2019-02-25T22:32:12.328Z,6.95
2019-02-25T22:34:41.640Z,6.95
2019-02-25T22:37:14.548Z,6.88
2019-02-25T22:39:43.823Z,6.71
2019-02-25T22:42:13.847Z,6.53
2019-02-25T22:44:45.168Z,6.17
2019-02-25T22:47:15.953Z,5.98
2019-02-25T22:49:45.274Z,5.98
2019-02-25T22:52:14.541Z,6.21
2019-02-25T22:54:45.726Z,6.15
2019-02-25T22:57:16.740Z,6.03
2019-02-25T22:59:45.930Z,6.12
2019-02-25T23:02:15.296Z,6.08
2019-02-25T23:04:46.951Z,6.08
2019-02-25T23:07:17.785Z,6.05
2019-02-25T23:09:48.118Z,6.04
2019-02-25T23:12:19.744Z,6.01
2019-02-25T23:14:49.549Z,6.01
2019-02-25T23:17:18.831Z,5.90
2019-02-25T23:19:48.144Z,5.78
2019-02-25T23:22:17.424Z,5.78
2019-02-25T23:24:46.744Z,5.84
2019-02-25T23:27:16.024Z,5.72
2019-02-25T23:29:47.796Z,5.88
2019-02-25T23:32:17.471Z,5.88
2019-02-25T23:34:50.139Z,5.98
2019-02-25T23:37:19.815Z,5.86
2019-02-25T23:39:49.625Z,5.67
2019-02-25T23:42:18.898Z,5.56
2019-02-25T23:44:48.246Z,5.49
2019-02-25T23:47:17.539Z,5.43
2019-02-25T23:49:48.517Z,5.28
2019-02-25T23:52:18.491Z,5.30
2019-02-25T23:54:49.733Z,5.36
2019-02-25T23:57:19.847Z,5.36
2019-02-25T23:59:51.670Z,5.35
